sensor_id;sensor_type;location;lat;lon;timestamp;P1;durP1;ratioP1;P2;durP2;ratioP2
47958;SDS011;33718;50.910;-1.514;2023-07-08T00:00:54;17.13;;;6.75;;
47958;SDS011;33718;50.910;-1.514;2023-07-08T00:02:56;9.15;;;5.82;;
47958;SDS011;33718;50.910;-1.514;2023-07-08T00:04:57;20.83;;;7.03;;
47958;SDS011;33718;50.910;-1.514;2023-07-08T00:06:59;15.13;;;7.75;;
47958;SDS011;33718;50.910;-1.514;2023-07-08T00:09:07;13.35;;;5.55;;
47958;SDS011;33718;50.910;-1.514;2023-07-08T00:11:12;12.55;;;5.18;;
47958;SDS011;33718;50.910;-1.514;2023-07-08T00:13:16;9.85;;;5.25;;
47958;SDS011;33718;50.910;-1.514;2023-07-08T00:17:21;7.40;;;4.60;;
47958;SDS011;33718;50.910;-1.514;2023-07-08T00:19:26;10.07;;;4.88;;
47958;SDS011;33718;50.910;-1.514;2023-07-08T00:21:30;10.63;;;5.45;;
47958;SDS011;33718;50.910;-1.514;2023-07-08T00:23:31;6.05;;;4.97;;
47958;SDS011;33718;50.910;-1.514;2023-07-08T00:25:36;7.10;;;4.70;;
47958;SDS011;33718;50.910;-1.514;2023-07-08T00:27:40;13.85;;;4.85;;
47958;SDS011;33718;50.910;-1.514;2023-07-08T00:30:00;7.65;;;4.97;;
47958;SDS011;33718;50.910;-1.514;2023-07-08T00:32:08;9.35;;;4.93;;
47958;SDS011;33718;50.910;-1.514;2023-07-08T00:34:13;10.02;;;4.35;;
47958;SDS011;33718;50.910;-1.514;2023-07-08T00:36:35;7.47;;;4.63;;
47958;SDS011;33718;50.910;-1.514;2023-07-08T00:38:36;8.38;;;4.28;;
47958;SDS011;33718;50.910;-1.514;2023-07-08T00:43:14;11.70;;;4.95;;
47958;SDS011;33718;50.910;-1.514;2023-07-08T00:45:28;8.75;;;5.20;;
47958;SDS011;33718;50.910;-1.514;2023-07-08T00:47:31;9.60;;;4.43;;
47958;SDS011;33718;50.910;-1.514;2023-07-08T00:51:49;8.40;;;4.82;;
47958;SDS011;33718;50.910;-1.514;2023-07-08T00:53:54;8.85;;;5.03;;
47958;SDS011;33718;50.910;-1.514;2023-07-08T00:55:57;9.27;;;4.93;;
47958;SDS011;33718;50.910;-1.514;2023-07-08T00:58:03;10.77;;;4.95;;
47958;SDS011;33718;50.910;-1.514;2023-07-08T01:00:08;9.00;;;5.03;;
47958;SDS011;33718;50.910;-1.514;2023-07-08T01:02:11;6.50;;;3.90;;
47958;SDS011;33718;50.910;-1.514;2023-07-08T01:04:18;10.15;;;5.00;;
47958;SDS011;33718;50.910;-1.514;2023-07-08T01:06:20;9.60;;;4.82;;
47958;SDS011;33718;50.910;-1.514;2023-07-08T01:08:26;10.07;;;4.38;;
47958;SDS011;33718;50.910;-1.514;2023-07-08T01:11:06;7.35;;;5.03;;
47958;SDS011;33718;50.910;-1.514;2023-07-08T01:13:05;10.88;;;4.68;;
47958;SDS011;33718;50.910;-1.514;2023-07-08T01:15:12;9.27;;;4.57;;
47958;SDS011;33718;50.910;-1.514;2023-07-08T01:17:34;8.25;;;4.90;;
47958;SDS011;33718;50.910;-1.514;2023-07-08T01:19:54;9.38;;;4.18;;
47958;SDS011;33718;50.910;-1.514;2023-07-08T01:22:03;10.77;;;4.28;;
47958;SDS011;33718;50.910;-1.514;2023-07-08T01:24:08;7.80;;;4.72;;
47958;SDS011;33718;50.910;-1.514;2023-07-08T01:26:10;10.70;;;5.03;;
47958;SDS011;33718;50.910;-1.514;2023-07-08T01:28:15;12.95;;;4.57;;
47958;SDS011;33718;50.910;-1.514;2023-07-08T01:30:19;15.93;;;5.07;;
47958;SDS011;33718;50.910;-1.514;2023-07-08T01:32:24;10.82;;;4.88;;
47958;SDS011;33718;50.910;-1.514;2023-07-08T01:34:32;11.68;;;4.50;;
47958;SDS011;33718;50.910;-1.514;2023-07-08T01:36:40;10.70;;;4.18;;
47958;SDS011;33718;50.910;-1.514;2023-07-08T01:38:56;9.02;;;4.68;;
47958;SDS011;33718;50.910;-1.514;2023-07-08T01:41:11;12.73;;;4.63;;
47958;SDS011;33718;50.910;-1.514;2023-07-08T01:43:38;8.63;;;4.65;;
47958;SDS011;33718;50.910;-1.514;2023-07-08T01:45:47;14.50;;;4.82;;
47958;SDS011;33718;50.910;-1.514;2023-07-08T01:47:54;10.88;;;4.88;;
47958;SDS011;33718;50.910;-1.514;2023-07-08T01:50:05;7.93;;;4.38;;
47958;SDS011;33718;50.910;-1.514;2023-07-08T01:52:18;9.32;;;4.47;;
47958;SDS011;33718;50.910;-1.514;2023-07-08T01:54:28;14.85;;;4.78;;
47958;SDS011;33718;50.910;-1.514;2023-07-08T01:56:57;11.88;;;4.30;;
47958;SDS011;33718;50.910;-1.514;2023-07-08T01:59:09;11.13;;;4.40;;
47958;SDS011;33718;50.910;-1.514;2023-07-08T02:01:18;9.18;;;4.05;;
47958;SDS011;33718;50.910;-1.514;2023-07-08T02:03:26;7.18;;;4.13;;
47958;SDS011;33718;50.910;-1.514;2023-07-08T02:05:36;8.73;;;4.07;;
47958;SDS011;33718;50.910;-1.514;2023-07-08T02:07:40;7.18;;;4.43;;
47958;SDS011;33718;50.910;-1.514;2023-07-08T02:10:01;10.70;;;4.05;;
47958;SDS011;33718;50.910;-1.514;2023-07-08T02:12:02;6.70;;;4.43;;
47958;SDS011;33718;50.910;-1.514;2023-07-08T02:14:04;9.82;;;4.05;;
47958;SDS011;33718;50.910;-1.514;2023-07-08T02:16:08;6.03;;;3.88;;
47958;SDS011;33718;50.910;-1.514;2023-07-08T02:18:13;7.25;;;4.07;;
47958;SDS011;33718;50.910;-1.514;2023-07-08T02:20:14;7.63;;;4.03;;
47958;SDS011;33718;50.910;-1.514;2023-07-08T02:22:16;5.35;;;3.55;;
47958;SDS011;33718;50.910;-1.514;2023-07-08T02:24:18;11.02;;;5.32;;
47958;SDS011;33718;50.910;-1.514;2023-07-08T02:26:22;8.32;;;4.40;;
47958;SDS011;33718;50.910;-1.514;2023-07-08T02:28:24;10.00;;;4.70;;
47958;SDS011;33718;50.910;-1.514;2023-07-08T02:30:28;10.13;;;4.55;;
47958;SDS011;33718;50.910;-1.514;2023-07-08T02:32:29;9.55;;;3.85;;
47958;SDS011;33718;50.910;-1.514;2023-07-08T02:34:50;11.63;;;4.00;;
47958;SDS011;33718;50.910;-1.514;2023-07-08T02:36:53;9.90;;;4.80;;
47958;SDS011;33718;50.910;-1.514;2023-07-08T02:38:58;6.13;;;3.75;;
47958;SDS011;33718;50.910;-1.514;2023-07-08T02:41:02;11.50;;;4.68;;
47958;SDS011;33718;50.910;-1.514;2023-07-08T02:43:03;10.27;;;4.78;;
47958;SDS011;33718;50.910;-1.514;2023-07-08T02:45:05;7.78;;;5.03;;
47958;SDS011;33718;50.910;-1.514;2023-07-08T02:47:07;8.77;;;3.85;;
47958;SDS011;33718;50.910;-1.514;2023-07-08T02:49:11;10.68;;;4.60;;
47958;SDS011;33718;50.910;-1.514;2023-07-08T02:51:31;12.60;;;4.93;;
47958;SDS011;33718;50.910;-1.514;2023-07-08T02:53:33;9.77;;;4.68;;
47958;SDS011;33718;50.910;-1.514;2023-07-08T02:55:34;11.88;;;4.50;;
47958;SDS011;33718;50.910;-1.514;2023-07-08T02:57:36;14.93;;;4.57;;
47958;SDS011;33718;50.910;-1.514;2023-07-08T02:59:37;12.52;;;4.30;;
47958;SDS011;33718;50.910;-1.514;2023-07-08T03:01:43;10.10;;;4.55;;
47958;SDS011;33718;50.910;-1.514;2023-07-08T03:03:47;13.35;;;4.53;;
47958;SDS011;33718;50.910;-1.514;2023-07-08T03:06:08;11.15;;;4.90;;
47958;SDS011;33718;50.910;-1.514;2023-07-08T03:08:10;12.65;;;4.40;;
47958;SDS011;33718;50.910;-1.514;2023-07-08T03:10:14;11.20;;;4.32;;
47958;SDS011;33718;50.910;-1.514;2023-07-08T03:12:15;7.78;;;4.28;;
47958;SDS011;33718;50.910;-1.514;2023-07-08T03:14:20;11.00;;;4.90;;
47958;SDS011;33718;50.910;-1.514;2023-07-08T03:16:21;8.73;;;4.63;;
47958;SDS011;33718;50.910;-1.514;2023-07-08T03:18:23;13.63;;;4.78;;
47958;SDS011;33718;50.910;-1.514;2023-07-08T03:20:25;8.98;;;4.43;;
47958;SDS011;33718;50.910;-1.514;2023-07-08T03:22:29;13.52;;;5.15;;
47958;SDS011;33718;50.910;-1.514;2023-07-08T03:24:50;13.25;;;4.85;;
47958;SDS011;33718;50.910;-1.514;2023-07-08T03:26:51;10.63;;;4.85;;
47958;SDS011;33718;50.910;-1.514;2023-07-08T03:30:57;12.50;;;5.25;;
47958;SDS011;33718;50.910;-1.514;2023-07-08T03:33:02;6.28;;;4.63;;
47958;SDS011;33718;50.910;-1.514;2023-07-08T03:35:04;14.02;;;5.00;;
47958;SDS011;33718;50.910;-1.514;2023-07-08T03:37:08;9.50;;;5.05;;
47958;SDS011;33718;50.910;-1.514;2023-07-08T03:39:10;9.80;;;4.80;;
47958;SDS011;33718;50.910;-1.514;2023-07-08T03:41:14;11.40;;;4.78;;
47958;SDS011;33718;50.910;-1.514;2023-07-08T03:43:34;14.02;;;5.25;;
47958;SDS011;33718;50.910;-1.514;2023-07-08T03:45:39;11.68;;;4.80;;
47958;SDS011;33718;50.910;-1.514;2023-07-08T03:47:43;7.93;;;4.55;;
47958;SDS011;33718;50.910;-1.514;2023-07-08T03:49:45;9.10;;;4.57;;
47958;SDS011;33718;50.910;-1.514;2023-07-08T03:51:47;13.73;;;5.22;;
47958;SDS011;33718;50.910;-1.514;2023-07-08T03:53:48;9.77;;;5.35;;
47958;SDS011;33718;50.910;-1.514;2023-07-08T03:56:10;11.38;;;5.07;;
47958;SDS011;33718;50.910;-1.514;2023-07-08T03:58:15;11.82;;;5.28;;
47958;SDS011;33718;50.910;-1.514;2023-07-08T04:00:20;13.88;;;6.45;;
47958;SDS011;33718;50.910;-1.514;2023-07-08T04:02:24;16.38;;;5.82;;
47958;SDS011;33718;50.910;-1.514;2023-07-08T04:04:28;19.00;;;6.80;;
47958;SDS011;33718;50.910;-1.514;2023-07-08T04:06:30;34.13;;;12.02;;
47958;SDS011;33718;50.910;-1.514;2023-07-08T04:08:34;39.75;;;13.20;;
47958;SDS011;33718;50.910;-1.514;2023-07-08T04:10:36;44.10;;;13.43;;
47958;SDS011;33718;50.910;-1.514;2023-07-08T04:12:38;26.38;;;9.88;;
47958;SDS011;33718;50.910;-1.514;2023-07-08T04:14:39;20.42;;;8.48;;
47958;SDS011;33718;50.910;-1.514;2023-07-08T04:16:51;18.08;;;5.50;;
47958;SDS011;33718;50.910;-1.514;2023-07-08T04:18:54;12.05;;;5.72;;
47958;SDS011;33718;50.910;-1.514;2023-07-08T04:20:56;16.80;;;5.88;;
47958;SDS011;33718;50.910;-1.514;2023-07-08T04:23:03;12.15;;;5.53;;
47958;SDS011;33718;50.910;-1.514;2023-07-08T04:25:24;15.10;;;6.07;;
47958;SDS011;33718;50.910;-1.514;2023-07-08T04:27:32;14.05;;;6.07;;
47958;SDS011;33718;50.910;-1.514;2023-07-08T04:29:52;16.35;;;6.28;;
47958;SDS011;33718;50.910;-1.514;2023-07-08T04:33:57;55.67;;;23.25;;
47958;SDS011;33718;50.910;-1.514;2023-07-08T04:36:03;81.55;;;28.25;;
47958;SDS011;33718;50.910;-1.514;2023-07-08T04:38:19;72.13;;;27.27;;
47958;SDS011;33718;50.910;-1.514;2023-07-08T04:40:34;53.28;;;21.30;;
47958;SDS011;33718;50.910;-1.514;2023-07-08T04:42:53;34.50;;;14.82;;
47958;SDS011;33718;50.910;-1.514;2023-07-08T04:45:05;18.10;;;6.60;;
47958;SDS011;33718;50.910;-1.514;2023-07-08T04:47:19;11.00;;;5.40;;
47958;SDS011;33718;50.910;-1.514;2023-07-08T04:49:33;14.77;;;5.32;;
47958;SDS011;33718;50.910;-1.514;2023-07-08T04:51:42;9.02;;;5.82;;
47958;SDS011;33718;50.910;-1.514;2023-07-08T04:53:51;16.95;;;5.38;;
47958;SDS011;33718;50.910;-1.514;2023-07-08T04:56:17;7.57;;;4.82;;
47958;SDS011;33718;50.910;-1.514;2023-07-08T04:58:24;15.02;;;5.95;;
47958;SDS011;33718;50.910;-1.514;2023-07-08T05:00:26;8.45;;;4.63;;
47958;SDS011;33718;50.910;-1.514;2023-07-08T05:02:31;17.60;;;7.22;;
47958;SDS011;33718;50.910;-1.514;2023-07-08T05:04:38;20.48;;;8.15;;
47958;SDS011;33718;50.910;-1.514;2023-07-08T05:06:41;23.67;;;8.38;;
47958;SDS011;33718;50.910;-1.514;2023-07-08T05:08:54;17.83;;;7.30;;
47958;SDS011;33718;50.910;-1.514;2023-07-08T05:11:04;16.30;;;7.00;;
47958;SDS011;33718;50.910;-1.514;2023-07-08T05:13:31;12.82;;;6.28;;
47958;SDS011;33718;50.910;-1.514;2023-07-08T05:15:32;13.98;;;5.88;;
47958;SDS011;33718;50.910;-1.514;2023-07-08T05:17:34;13.80;;;5.88;;
47958;SDS011;33718;50.910;-1.514;2023-07-08T05:19:35;11.55;;;5.88;;
47958;SDS011;33718;50.910;-1.514;2023-07-08T05:21:39;17.70;;;6.47;;
47958;SDS011;33718;50.910;-1.514;2023-07-08T05:23:44;10.85;;;5.55;;
47958;SDS011;33718;50.910;-1.514;2023-07-08T05:25:48;13.60;;;4.60;;
47958;SDS011;33718;50.910;-1.514;2023-07-08T05:27:52;7.90;;;5.32;;
47958;SDS011;33718;50.910;-1.514;2023-07-08T05:29:56;7.80;;;4.95;;
47958;SDS011;33718;50.910;-1.514;2023-07-08T05:31:58;13.07;;;4.72;;
47958;SDS011;33718;50.910;-1.514;2023-07-08T05:34:00;13.45;;;4.63;;
47958;SDS011;33718;50.910;-1.514;2023-07-08T05:36:01;8.00;;;4.70;;
47958;SDS011;33718;50.910;-1.514;2023-07-08T05:38:03;6.72;;;4.53;;
47958;SDS011;33718;50.910;-1.514;2023-07-08T05:40:05;8.68;;;4.70;;
47958;SDS011;33718;50.910;-1.514;2023-07-08T05:42:06;8.00;;;4.60;;
47958;SDS011;33718;50.910;-1.514;2023-07-08T05:44:08;11.10;;;4.88;;
47958;SDS011;33718;50.910;-1.514;2023-07-08T05:46:10;11.55;;;5.10;;
47958;SDS011;33718;50.910;-1.514;2023-07-08T05:48:13;5.55;;;3.92;;
47958;SDS011;33718;50.910;-1.514;2023-07-08T05:50:15;10.88;;;4.63;;
47958;SDS011;33718;50.910;-1.514;2023-07-08T05:52:16;7.30;;;4.30;;
47958;SDS011;33718;50.910;-1.514;2023-07-08T05:54:21;11.15;;;4.55;;
47958;SDS011;33718;50.910;-1.514;2023-07-08T05:56:22;9.30;;;4.80;;
47958;SDS011;33718;50.910;-1.514;2023-07-08T05:58:24;11.98;;;4.82;;
47958;SDS011;33718;50.910;-1.514;2023-07-08T06:00:30;6.93;;;4.85;;
47958;SDS011;33718;50.910;-1.514;2023-07-08T06:02:42;12.43;;;4.75;;
47958;SDS011;33718;50.910;-1.514;2023-07-08T06:04:44;16.17;;;5.00;;
47958;SDS011;33718;50.910;-1.514;2023-07-08T06:06:45;8.82;;;5.97;;
47958;SDS011;33718;50.910;-1.514;2023-07-08T06:08:46;7.53;;;5.13;;
47958;SDS011;33718;50.910;-1.514;2023-07-08T06:10:51;14.02;;;4.93;;
47958;SDS011;33718;50.910;-1.514;2023-07-08T06:12:55;9.25;;;3.80;;
47958;SDS011;33718;50.910;-1.514;2023-07-08T06:14:57;8.27;;;4.57;;
47958;SDS011;33718;50.910;-1.514;2023-07-08T06:16:58;13.02;;;4.30;;
47958;SDS011;33718;50.910;-1.514;2023-07-08T06:19:00;10.25;;;4.03;;
47958;SDS011;33718;50.910;-1.514;2023-07-08T06:21:02;12.68;;;5.07;;
47958;SDS011;33718;50.910;-1.514;2023-07-08T06:23:06;8.27;;;4.80;;
47958;SDS011;33718;50.910;-1.514;2023-07-08T06:25:08;14.52;;;6.40;;
47958;SDS011;33718;50.910;-1.514;2023-07-08T06:27:28;9.60;;;4.80;;
47958;SDS011;33718;50.910;-1.514;2023-07-08T06:29:29;12.85;;;4.38;;
47958;SDS011;33718;50.910;-1.514;2023-07-08T06:31:31;8.80;;;4.65;;
47958;SDS011;33718;50.910;-1.514;2023-07-08T06:33:36;7.45;;;4.03;;
47958;SDS011;33718;50.910;-1.514;2023-07-08T06:35:37;7.32;;;4.13;;
47958;SDS011;33718;50.910;-1.514;2023-07-08T06:37:39;8.00;;;4.50;;
47958;SDS011;33718;50.910;-1.514;2023-07-08T06:39:43;10.73;;;4.93;;
47958;SDS011;33718;50.910;-1.514;2023-07-08T06:41:48;7.93;;;5.13;;
47958;SDS011;33718;50.910;-1.514;2023-07-08T06:43:49;11.35;;;4.72;;
47958;SDS011;33718;50.910;-1.514;2023-07-08T06:45:54;6.63;;;4.35;;
47958;SDS011;33718;50.910;-1.514;2023-07-08T06:47:55;6.57;;;4.22;;
47958;SDS011;33718;50.910;-1.514;2023-07-08T06:49:57;9.13;;;5.20;;
47958;SDS011;33718;50.910;-1.514;2023-07-08T06:52:00;13.98;;;5.07;;
47958;SDS011;33718;50.910;-1.514;2023-07-08T06:54:02;7.35;;;4.03;;
47958;SDS011;33718;50.910;-1.514;2023-07-08T06:56:15;11.90;;;4.45;;
47958;SDS011;33718;50.910;-1.514;2023-07-08T06:58:20;6.78;;;4.28;;
47958;SDS011;33718;50.910;-1.514;2023-07-08T07:00:24;12.40;;;4.07;;
47958;SDS011;33718;50.910;-1.514;2023-07-08T07:02:28;9.88;;;4.43;;
47958;SDS011;33718;50.910;-1.514;2023-07-08T07:04:30;10.23;;;4.93;;
47958;SDS011;33718;50.910;-1.514;2023-07-08T07:06:36;11.85;;;4.75;;
47958;SDS011;33718;50.910;-1.514;2023-07-08T07:08:40;8.50;;;4.22;;
47958;SDS011;33718;50.910;-1.514;2023-07-08T07:10:44;7.63;;;4.10;;
47958;SDS011;33718;50.910;-1.514;2023-07-08T07:12:46;7.68;;;4.22;;
47958;SDS011;33718;50.910;-1.514;2023-07-08T07:14:47;9.95;;;4.38;;
47958;SDS011;33718;50.910;-1.514;2023-07-08T07:16:54;7.55;;;4.47;;
47958;SDS011;33718;50.910;-1.514;2023-07-08T07:19:11;9.30;;;5.00;;
47958;SDS011;33718;50.910;-1.514;2023-07-08T07:21:15;9.10;;;3.58;;
47958;SDS011;33718;50.910;-1.514;2023-07-08T07:23:17;9.13;;;4.05;;
47958;SDS011;33718;50.910;-1.514;2023-07-08T07:25:21;10.20;;;4.38;;
47958;SDS011;33718;50.910;-1.514;2023-07-08T07:27:26;8.65;;;4.07;;
47958;SDS011;33718;50.910;-1.514;2023-07-08T07:29:39;9.68;;;4.47;;
47958;SDS011;33718;50.910;-1.514;2023-07-08T07:31:40;5.35;;;3.63;;
47958;SDS011;33718;50.910;-1.514;2023-07-08T07:33:42;10.88;;;4.30;;
47958;SDS011;33718;50.910;-1.514;2023-07-08T07:35:46;9.15;;;4.97;;
47958;SDS011;33718;50.910;-1.514;2023-07-08T07:37:48;9.45;;;4.32;;
47958;SDS011;33718;50.910;-1.514;2023-07-08T07:39:49;10.77;;;4.40;;
47958;SDS011;33718;50.910;-1.514;2023-07-08T07:41:51;10.35;;;5.22;;
47958;SDS011;33718;50.910;-1.514;2023-07-08T07:44:14;9.45;;;5.03;;
47958;SDS011;33718;50.910;-1.514;2023-07-08T07:46:21;6.40;;;4.32;;
47958;SDS011;33718;50.910;-1.514;2023-07-08T07:48:36;10.90;;;4.35;;
47958;SDS011;33718;50.910;-1.514;2023-07-08T07:50:48;11.05;;;4.95;;
47958;SDS011;33718;50.910;-1.514;2023-07-08T07:53:01;7.13;;;4.47;;
47958;SDS011;33718;50.910;-1.514;2023-07-08T07:55:12;10.90;;;5.13;;
47958;SDS011;33718;50.910;-1.514;2023-07-08T07:57:22;9.35;;;5.10;;
47958;SDS011;33718;50.910;-1.514;2023-07-08T08:01:33;10.50;;;5.50;;
47958;SDS011;33718;50.910;-1.514;2023-07-08T08:03:45;11.25;;;5.38;;
47958;SDS011;33718;50.910;-1.514;2023-07-08T08:05:54;11.80;;;5.10;;
47958;SDS011;33718;50.910;-1.514;2023-07-08T08:07:59;7.63;;;4.55;;
47958;SDS011;33718;50.910;-1.514;2023-07-08T08:10:07;12.55;;;4.93;;
47958;SDS011;33718;50.910;-1.514;2023-07-08T08:12:18;9.82;;;5.20;;
47958;SDS011;33718;50.910;-1.514;2023-07-08T08:14:26;11.52;;;4.63;;
47958;SDS011;33718;50.910;-1.514;2023-07-08T08:16:32;15.18;;;4.82;;
47958;SDS011;33718;50.910;-1.514;2023-07-08T08:18:38;11.18;;;5.57;;
47958;SDS011;33718;50.910;-1.514;2023-07-08T08:20:40;12.38;;;5.60;;
47958;SDS011;33718;50.910;-1.514;2023-07-08T08:22:46;11.23;;;5.22;;
47958;SDS011;33718;50.910;-1.514;2023-07-08T08:24:48;12.35;;;4.68;;
47958;SDS011;33718;50.910;-1.514;2023-07-08T08:26:50;13.82;;;4.95;;
47958;SDS011;33718;50.910;-1.514;2023-07-08T08:28:54;13.05;;;4.75;;
47958;SDS011;33718;50.910;-1.514;2023-07-08T08:30:56;9.70;;;5.07;;
47958;SDS011;33718;50.910;-1.514;2023-07-08T08:33:01;17.92;;;5.60;;
47958;SDS011;33718;50.910;-1.514;2023-07-08T08:35:06;6.78;;;4.93;;
47958;SDS011;33718;50.910;-1.514;2023-07-08T08:37:07;15.00;;;5.75;;
47958;SDS011;33718;50.910;-1.514;2023-07-08T08:39:09;12.38;;;6.05;;
47958;SDS011;33718;50.910;-1.514;2023-07-08T08:41:11;12.45;;;6.10;;
47958;SDS011;33718;50.910;-1.514;2023-07-08T08:43:18;13.40;;;5.72;;
47958;SDS011;33718;50.910;-1.514;2023-07-08T08:45:23;14.38;;;5.47;;
47958;SDS011;33718;50.910;-1.514;2023-07-08T08:49:41;12.68;;;6.28;;
47958;SDS011;33718;50.910;-1.514;2023-07-08T08:51:48;12.70;;;5.75;;
47958;SDS011;33718;50.910;-1.514;2023-07-08T08:53:55;11.10;;;5.05;;
47958;SDS011;33718;50.910;-1.514;2023-07-08T08:56:03;12.52;;;6.38;;
47958;SDS011;33718;50.910;-1.514;2023-07-08T09:00:08;11.48;;;6.82;;
47958;SDS011;33718;50.910;-1.514;2023-07-08T09:02:25;20.40;;;6.00;;
47958;SDS011;33718;50.910;-1.514;2023-07-08T09:04:32;10.35;;;6.05;;
47958;SDS011;33718;50.910;-1.514;2023-07-08T09:06:53;17.50;;;6.45;;
47958;SDS011;33718;50.910;-1.514;2023-07-08T09:09:21;11.13;;;6.25;;
47958;SDS011;33718;50.910;-1.514;2023-07-08T09:13:33;12.35;;;5.55;;
47958;SDS011;33718;50.910;-1.514;2023-07-08T09:15:38;13.63;;;4.93;;
47958;SDS011;33718;50.910;-1.514;2023-07-08T09:17:43;10.63;;;5.20;;
47958;SDS011;33718;50.910;-1.514;2023-07-08T09:24:08;19.27;;;6.03;;
47958;SDS011;33718;50.910;-1.514;2023-07-08T09:26:15;11.63;;;5.82;;
47958;SDS011;33718;50.910;-1.514;2023-07-08T09:28:21;10.90;;;4.95;;
47958;SDS011;33718;50.910;-1.514;2023-07-08T09:30:23;12.23;;;4.85;;
47958;SDS011;33718;50.910;-1.514;2023-07-08T09:32:29;14.60;;;5.65;;
47958;SDS011;33718;50.910;-1.514;2023-07-08T09:34:37;12.07;;;5.70;;
47958;SDS011;33718;50.910;-1.514;2023-07-08T09:37:00;13.77;;;5.72;;
47958;SDS011;33718;50.910;-1.514;2023-07-08T09:39:02;11.35;;;5.75;;
47958;SDS011;33718;50.910;-1.514;2023-07-08T09:41:07;12.10;;;5.70;;
47958;SDS011;33718;50.910;-1.514;2023-07-08T09:45:19;12.93;;;5.75;;
47958;SDS011;33718;50.910;-1.514;2023-07-08T09:49:33;10.93;;;5.40;;
47958;SDS011;33718;50.910;-1.514;2023-07-08T09:51:38;13.25;;;6.30;;
47958;SDS011;33718;50.910;-1.514;2023-07-08T09:53:42;12.80;;;6.93;;
47958;SDS011;33718;50.910;-1.514;2023-07-08T09:55:45;12.15;;;6.03;;
47958;SDS011;33718;50.910;-1.514;2023-07-08T09:57:50;14.27;;;5.78;;
47958;SDS011;33718;50.910;-1.514;2023-07-08T09:59:54;13.43;;;5.88;;
47958;SDS011;33718;50.910;-1.514;2023-07-08T10:02:30;13.45;;;6.28;;
47958;SDS011;33718;50.910;-1.514;2023-07-08T10:04:33;16.45;;;5.63;;
47958;SDS011;33718;50.910;-1.514;2023-07-08T10:06:35;13.27;;;5.53;;
47958;SDS011;33718;50.910;-1.514;2023-07-08T10:08:40;9.02;;;4.82;;
47958;SDS011;33718;50.910;-1.514;2023-07-08T10:10:45;11.88;;;5.45;;
47958;SDS011;33718;50.910;-1.514;2023-07-08T10:12:55;8.32;;;5.20;;
47958;SDS011;33718;50.910;-1.514;2023-07-08T10:15:05;9.00;;;4.88;;
47958;SDS011;33718;50.910;-1.514;2023-07-08T10:17:10;8.80;;;4.95;;
47958;SDS011;33718;50.910;-1.514;2023-07-08T10:19:18;13.35;;;6.10;;
47958;SDS011;33718;50.910;-1.514;2023-07-08T10:25:49;12.95;;;6.05;;
47958;SDS011;33718;50.910;-1.514;2023-07-08T10:28:02;9.35;;;5.05;;
47958;SDS011;33718;50.910;-1.514;2023-07-08T10:32:12;10.50;;;4.70;;
47958;SDS011;33718;50.910;-1.514;2023-07-08T10:36:50;10.27;;;5.70;;
47958;SDS011;33718;50.910;-1.514;2023-07-08T10:38:59;15.93;;;7.57;;
47958;SDS011;33718;50.910;-1.514;2023-07-08T10:41:15;18.02;;;6.57;;
47958;SDS011;33718;50.910;-1.514;2023-07-08T10:44:00;15.23;;;9.45;;
47958;SDS011;33718;50.910;-1.514;2023-07-08T10:46:11;13.00;;;5.03;;
47958;SDS011;33718;50.910;-1.514;2023-07-08T10:59:17;18.08;;;10.43;;
47958;SDS011;33718;50.910;-1.514;2023-07-08T11:02:15;14.63;;;7.65;;
47958;SDS011;33718;50.910;-1.514;2023-07-08T11:06:56;9.05;;;4.45;;
47958;SDS011;33718;50.910;-1.514;2023-07-08T11:08:55;12.32;;;3.65;;
47958;SDS011;33718;50.910;-1.514;2023-07-08T11:11:17;5.47;;;3.20;;
47958;SDS011;33718;50.910;-1.514;2023-07-08T11:13:29;9.85;;;3.80;;
47958;SDS011;33718;50.910;-1.514;2023-07-08T11:18:09;11.38;;;4.03;;
47958;SDS011;33718;50.910;-1.514;2023-07-08T11:20:36;7.65;;;3.97;;
47958;SDS011;33718;50.910;-1.514;2023-07-08T11:22:48;9.15;;;4.07;;
47958;SDS011;33718;50.910;-1.514;2023-07-08T11:24:59;9.75;;;3.50;;
47958;SDS011;33718;50.910;-1.514;2023-07-08T11:27:06;8.35;;;4.03;;
47958;SDS011;33718;50.910;-1.514;2023-07-08T11:29:17;4.53;;;3.15;;
47958;SDS011;33718;50.910;-1.514;2023-07-08T11:31:38;11.23;;;3.20;;
47958;SDS011;33718;50.910;-1.514;2023-07-08T11:33:43;10.25;;;3.30;;
47958;SDS011;33718;50.910;-1.514;2023-07-08T11:35:49;11.15;;;3.58;;
47958;SDS011;33718;50.910;-1.514;2023-07-08T11:37:51;6.22;;;3.22;;
47958;SDS011;33718;50.910;-1.514;2023-07-08T11:39:55;6.57;;;3.67;;
47958;SDS011;33718;50.910;-1.514;2023-07-08T11:42:21;5.85;;;2.83;;
47958;SDS011;33718;50.910;-1.514;2023-07-08T11:44:20;5.25;;;3.08;;
47958;SDS011;33718;50.910;-1.514;2023-07-08T11:46:23;4.72;;;3.13;;
47958;SDS011;33718;50.910;-1.514;2023-07-08T11:48:30;5.55;;;3.45;;
47958;SDS011;33718;50.910;-1.514;2023-07-08T11:50:36;4.30;;;2.45;;
47958;SDS011;33718;50.910;-1.514;2023-07-08T11:52:38;3.85;;;2.58;;
47958;SDS011;33718;50.910;-1.514;2023-07-08T11:54:59;5.18;;;2.65;;
47958;SDS011;33718;50.910;-1.514;2023-07-08T11:57:06;7.33;;;2.27;;
47958;SDS011;33718;50.910;-1.514;2023-07-08T11:59:19;4.90;;;3.10;;
47958;SDS011;33718;50.910;-1.514;2023-07-08T12:03:49;5.03;;;2.83;;
47958;SDS011;33718;50.910;-1.514;2023-07-08T12:05:50;5.88;;;2.60;;
47958;SDS011;33718;50.910;-1.514;2023-07-08T12:07:54;5.28;;;2.30;;
47958;SDS011;33718;50.910;-1.514;2023-07-08T12:10:03;7.60;;;3.05;;
47958;SDS011;33718;50.910;-1.514;2023-07-08T12:12:17;6.97;;;3.08;;
47958;SDS011;33718;50.910;-1.514;2023-07-08T12:14:21;6.20;;;2.78;;
47958;SDS011;33718;50.910;-1.514;2023-07-08T12:16:23;7.47;;;2.70;;
47958;SDS011;33718;50.910;-1.514;2023-07-08T12:18:30;4.88;;;2.25;;
47958;SDS011;33718;50.910;-1.514;2023-07-08T12:20:53;6.15;;;2.53;;
47958;SDS011;33718;50.910;-1.514;2023-07-08T12:22:55;6.93;;;2.60;;
47958;SDS011;33718;50.910;-1.514;2023-07-08T12:25:00;8.07;;;2.42;;
47958;SDS011;33718;50.910;-1.514;2023-07-08T12:27:10;6.15;;;2.13;;
47958;SDS011;33718;50.910;-1.514;2023-07-08T12:29:31;6.32;;;2.40;;
47958;SDS011;33718;50.910;-1.514;2023-07-08T12:31:33;5.70;;;2.13;;
47958;SDS011;33718;50.910;-1.514;2023-07-08T12:33:37;3.65;;;2.50;;
47958;SDS011;33718;50.910;-1.514;2023-07-08T12:35:41;7.13;;;2.72;;
47958;SDS011;33718;50.910;-1.514;2023-07-08T12:37:43;9.30;;;3.80;;
47958;SDS011;33718;50.910;-1.514;2023-07-08T12:39:57;6.18;;;2.75;;
47958;SDS011;33718;50.910;-1.514;2023-07-08T12:42:08;5.60;;;2.55;;
47958;SDS011;33718;50.910;-1.514;2023-07-08T12:44:20;7.78;;;2.70;;
47958;SDS011;33718;50.910;-1.514;2023-07-08T12:46:25;6.20;;;3.00;;
47958;SDS011;33718;50.910;-1.514;2023-07-08T12:48:31;8.67;;;2.50;;
47958;SDS011;33718;50.910;-1.514;2023-07-08T12:50:35;5.72;;;2.40;;
47958;SDS011;33718;50.910;-1.514;2023-07-08T12:52:37;4.20;;;2.17;;
47958;SDS011;33718;50.910;-1.514;2023-07-08T12:54:38;8.68;;;3.03;;
47958;SDS011;33718;50.910;-1.514;2023-07-08T12:56:42;7.95;;;2.97;;
47958;SDS011;33718;50.910;-1.514;2023-07-08T12:58:51;10.65;;;2.20;;
47958;SDS011;33718;50.910;-1.514;2023-07-08T13:00:54;8.30;;;2.47;;
47958;SDS011;33718;50.910;-1.514;2023-07-08T13:03:02;8.43;;;2.90;;
47958;SDS011;33718;50.910;-1.514;2023-07-08T13:05:05;8.02;;;2.40;;
47958;SDS011;33718;50.910;-1.514;2023-07-08T13:07:09;5.07;;;2.22;;
47958;SDS011;33718;50.910;-1.514;2023-07-08T13:11:50;4.07;;;1.77;;
47958;SDS011;33718;50.910;-1.514;2023-07-08T13:14:00;5.15;;;2.45;;
47958;SDS011;33718;50.910;-1.514;2023-07-08T13:16:05;5.65;;;2.17;;
47958;SDS011;33718;50.910;-1.514;2023-07-08T13:18:13;6.75;;;2.65;;
47958;SDS011;33718;50.910;-1.514;2023-07-08T13:20:18;6.35;;;2.40;;
47958;SDS011;33718;50.910;-1.514;2023-07-08T13:22:20;8.13;;;2.78;;
47958;SDS011;33718;50.910;-1.514;2023-07-08T13:24:29;13.75;;;6.07;;